TABULAR FORECAST OF EN-ROUTE CONDITIONS LOW LEVEL MODEL TA1

DATE: JANUARY 25, 2015 HEIGHT IN FEET MSL

VALID FOR DEPARTURE BETWEEN: 10.00UTC AND 15.00UTC

AND ARRIVAL BETWEEN: 10.00UTC AND 15.00UTC

SPECIAL FEATURES OF THE METEOROLOGICAL SITUATION:

SUBSIDENCE PATTERN INBITS RAINFALL ACROSS THE COASTAL AREA, WHILE INFLUENCE OF I.T.C.Z. IS LOCALLY VISIBLE INLAND

07° N                            4° N                            2° N

UPPER WINDS

(DEGREES TRUE AND KNOTS)

  10000FT

   5000FT

    2000FT

 TEMPERATURE

(DEGREES CELSIUS)

  

                          

                           070/15    PS 09

                           080/20    PS 16

                           060/20    PS 21

 

CLOUDS

                                                  1000

                  LOC SCT/BKN ST ——

                                                   200

                                    6000                       

   FEW LOC SCT CU ——

                                    1200

VISIBILITY

1000M - 8KM IN MIST

SIGNIFICANT WEATHER

MIST IN SOME AREAS TILL 12Z, CLEARING UP , ALONG WITH THE ST-CLOUDS, WITHIN THE NEXT 2 HOURS

HEIGHT OF 0ºC ISOTHERM (ft)

+/- 15000

FORECAST LOWEST QNH (hPa)

1009

SUPPLEMENTARY INFORMATION

Issued at NMC on: 10.00UTC JANUARY 25, 2014 BY FORECASTER: D. SAMUEL.

 

Note:

1.   Positive and negative values are indicated by the prefix “PS” (plus) and “MS” (minus) respectively.

2.   When a single numerical value of an element is given in a forecast it is to be interpreted as representing

the most probable mean of a range of values which the element may assume during the period of the forecast.

 

ABBREVIATIONS: SKC – 0 oktas, FEW – 1 to 2 oktas, SCT – 3 to 4 oktas, BKN – 5 to 7 oktas, OVC – 8 oktas, LYR –Occasional, FRQ – Frequent, EMBD – Embedded.

 

METAR SMJP 251000Z 00000KT 7000 2000E BR SCT002 21/21 Q1013 NOSIG=

METAR SMZO 251000Z 00000KT 9999 FEW018CB 23/23 Q1013 NOSIG=

METAR SMNI 251000Z 00000KT 9999 VCSH SCT015 FEW018CB SCT025 23/23 Q1013=

METAR SMST 251000Z 00000KT 9999 SCT008 BKN018 23/23 Q////=